sensor_id;sensor_type;location;lat;lon;timestamp;P1;durP1;ratioP1;P2;durP2;ratioP2
4827;SDS011;2428;48.732;9.148;2023-06-26T00:01:49;5.60;;;4.40;;
4827;SDS011;2428;48.732;9.148;2023-06-26T00:04:15;5.10;;;4.03;;
4827;SDS011;2428;48.732;9.148;2023-06-26T00:06:40;4.87;;;4.30;;
4827;SDS011;2428;48.732;9.148;2023-06-26T00:09:07;5.73;;;3.80;;
4827;SDS011;2428;48.732;9.148;2023-06-26T00:11:33;6.53;;;4.50;;
4827;SDS011;2428;48.732;9.148;2023-06-26T00:13:59;4.93;;;4.17;;
4827;SDS011;2428;48.732;9.148;2023-06-26T00:16:26;4.77;;;3.87;;
4827;SDS011;2428;48.732;9.148;2023-06-26T00:18:52;9.77;;;4.90;;
4827;SDS011;2428;48.732;9.148;2023-06-26T00:21:19;6.97;;;4.50;;
4827;SDS011;2428;48.732;9.148;2023-06-26T00:23:45;7.53;;;4.87;;
4827;SDS011;2428;48.732;9.148;2023-06-26T00:26:11;4.93;;;3.93;;
4827;SDS011;2428;48.732;9.148;2023-06-26T00:28:37;5.57;;;4.63;;
4827;SDS011;2428;48.732;9.148;2023-06-26T00:31:02;9.50;;;5.30;;
4827;SDS011;2428;48.732;9.148;2023-06-26T00:33:28;5.40;;;4.60;;
4827;SDS011;2428;48.732;9.148;2023-06-26T00:35:54;5.93;;;3.63;;
4827;SDS011;2428;48.732;9.148;2023-06-26T00:38:19;7.40;;;5.17;;
4827;SDS011;2428;48.732;9.148;2023-06-26T00:40:46;5.03;;;4.53;;
4827;SDS011;2428;48.732;9.148;2023-06-26T00:43:11;8.27;;;5.43;;
4827;SDS011;2428;48.732;9.148;2023-06-26T00:45:37;8.50;;;6.47;;
4827;SDS011;2428;48.732;9.148;2023-06-26T00:48:02;8.30;;;6.40;;
4827;SDS011;2428;48.732;9.148;2023-06-26T00:50:28;5.13;;;4.13;;
4827;SDS011;2428;48.732;9.148;2023-06-26T00:52:54;5.23;;;4.00;;
4827;SDS011;2428;48.732;9.148;2023-06-26T00:55:25;7.03;;;4.73;;
4827;SDS011;2428;48.732;9.148;2023-06-26T00:57:54;6.43;;;5.03;;
4827;SDS011;2428;48.732;9.148;2023-06-26T01:00:20;5.03;;;4.10;;
4827;SDS011;2428;48.732;9.148;2023-06-26T01:02:46;5.70;;;4.27;;
4827;SDS011;2428;48.732;9.148;2023-06-26T01:05:12;6.07;;;4.00;;
4827;SDS011;2428;48.732;9.148;2023-06-26T01:07:46;4.90;;;4.30;;
4827;SDS011;2428;48.732;9.148;2023-06-26T01:10:13;6.27;;;4.40;;
4827;SDS011;2428;48.732;9.148;2023-06-26T01:12:38;4.73;;;4.13;;
4827;SDS011;2428;48.732;9.148;2023-06-26T01:15:04;5.23;;;4.70;;
4827;SDS011;2428;48.732;9.148;2023-06-26T01:17:31;5.00;;;4.17;;
4827;SDS011;2428;48.732;9.148;2023-06-26T01:20:00;6.10;;;4.40;;
4827;SDS011;2428;48.732;9.148;2023-06-26T01:27:49;4.27;;;3.20;;
4827;SDS011;2428;48.732;9.148;2023-06-26T01:30:17;5.87;;;4.53;;
4827;SDS011;2428;48.732;9.148;2023-06-26T01:32:44;4.47;;;4.07;;
4827;SDS011;2428;48.732;9.148;2023-06-26T01:35:11;4.57;;;4.13;;
4827;SDS011;2428;48.732;9.148;2023-06-26T01:37:37;4.80;;;3.63;;
4827;SDS011;2428;48.732;9.148;2023-06-26T01:40:03;3.83;;;3.43;;
4827;SDS011;2428;48.732;9.148;2023-06-26T01:42:32;5.33;;;4.63;;
4827;SDS011;2428;48.732;9.148;2023-06-26T01:44:59;4.20;;;3.40;;
4827;SDS011;2428;48.732;9.148;2023-06-26T01:47:31;4.03;;;3.47;;
4827;SDS011;2428;48.732;9.148;2023-06-26T01:50:02;4.47;;;4.07;;
4827;SDS011;2428;48.732;9.148;2023-06-26T01:52:41;4.10;;;3.70;;
4827;SDS011;2428;48.732;9.148;2023-06-26T01:55:32;5.30;;;4.20;;
4827;SDS011;2428;48.732;9.148;2023-06-26T01:58:19;7.10;;;4.43;;
4827;SDS011;2428;48.732;9.148;2023-06-26T02:00:48;6.30;;;4.50;;
4827;SDS011;2428;48.732;9.148;2023-06-26T02:03:14;7.33;;;4.50;;
4827;SDS011;2428;48.732;9.148;2023-06-26T02:05:40;4.40;;;3.60;;
4827;SDS011;2428;48.732;9.148;2023-06-26T02:08:05;5.00;;;3.80;;
4827;SDS011;2428;48.732;9.148;2023-06-26T02:10:33;5.53;;;4.17;;
4827;SDS011;2428;48.732;9.148;2023-06-26T02:12:59;6.33;;;3.80;;
4827;SDS011;2428;48.732;9.148;2023-06-26T02:15:25;8.27;;;4.60;;
4827;SDS011;2428;48.732;9.148;2023-06-26T02:17:51;7.90;;;4.77;;
4827;SDS011;2428;48.732;9.148;2023-06-26T02:20:16;6.60;;;4.50;;
4827;SDS011;2428;48.732;9.148;2023-06-26T02:22:42;4.73;;;3.60;;
4827;SDS011;2428;48.732;9.148;2023-06-26T02:25:08;4.90;;;3.80;;
4827;SDS011;2428;48.732;9.148;2023-06-26T02:27:35;5.47;;;4.40;;
4827;SDS011;2428;48.732;9.148;2023-06-26T02:30:00;5.90;;;4.07;;
4827;SDS011;2428;48.732;9.148;2023-06-26T02:32:26;4.63;;;4.17;;
4827;SDS011;2428;48.732;9.148;2023-06-26T02:34:52;5.30;;;4.53;;
4827;SDS011;2428;48.732;9.148;2023-06-26T02:37:19;4.10;;;3.60;;
4827;SDS011;2428;48.732;9.148;2023-06-26T02:39:44;6.00;;;4.07;;
4827;SDS011;2428;48.732;9.148;2023-06-26T02:42:10;4.43;;;3.63;;
4827;SDS011;2428;48.732;9.148;2023-06-26T02:44:36;7.27;;;4.03;;
4827;SDS011;2428;48.732;9.148;2023-06-26T02:47:01;5.63;;;3.93;;
4827;SDS011;2428;48.732;9.148;2023-06-26T02:49:27;4.43;;;3.83;;
4827;SDS011;2428;48.732;9.148;2023-06-26T02:51:52;6.43;;;4.53;;
4827;SDS011;2428;48.732;9.148;2023-06-26T02:54:18;5.33;;;3.90;;
4827;SDS011;2428;48.732;9.148;2023-06-26T02:56:43;5.77;;;3.63;;
4827;SDS011;2428;48.732;9.148;2023-06-26T02:59:09;5.77;;;4.60;;
4827;SDS011;2428;48.732;9.148;2023-06-26T03:01:35;5.10;;;3.73;;
4827;SDS011;2428;48.732;9.148;2023-06-26T03:04:00;4.60;;;3.63;;
4827;SDS011;2428;48.732;9.148;2023-06-26T03:06:26;5.90;;;4.17;;
4827;SDS011;2428;48.732;9.148;2023-06-26T03:08:52;5.13;;;4.63;;
4827;SDS011;2428;48.732;9.148;2023-06-26T03:11:18;6.07;;;3.90;;
4827;SDS011;2428;48.732;9.148;2023-06-26T03:13:44;4.70;;;4.20;;
4827;SDS011;2428;48.732;9.148;2023-06-26T03:16:10;4.10;;;3.70;;
4827;SDS011;2428;48.732;9.148;2023-06-26T03:18:35;7.53;;;4.23;;
4827;SDS011;2428;48.732;9.148;2023-06-26T03:21:01;4.73;;;3.93;;
4827;SDS011;2428;48.732;9.148;2023-06-26T03:23:27;4.20;;;3.57;;
4827;SDS011;2428;48.732;9.148;2023-06-26T03:25:53;5.00;;;3.90;;
4827;SDS011;2428;48.732;9.148;2023-06-26T03:28:18;4.40;;;3.90;;
4827;SDS011;2428;48.732;9.148;2023-06-26T03:30:44;5.93;;;5.33;;
4827;SDS011;2428;48.732;9.148;2023-06-26T03:33:10;3.90;;;3.40;;
4827;SDS011;2428;48.732;9.148;2023-06-26T03:35:36;4.20;;;3.80;;
4827;SDS011;2428;48.732;9.148;2023-06-26T03:38:01;5.50;;;4.30;;
4827;SDS011;2428;48.732;9.148;2023-06-26T03:40:28;4.20;;;3.50;;
4827;SDS011;2428;48.732;9.148;2023-06-26T03:42:54;4.00;;;3.37;;
4827;SDS011;2428;48.732;9.148;2023-06-26T03:45:19;5.40;;;4.90;;
4827;SDS011;2428;48.732;9.148;2023-06-26T03:47:45;5.13;;;4.30;;
4827;SDS011;2428;48.732;9.148;2023-06-26T03:50:15;5.13;;;4.27;;
4827;SDS011;2428;48.732;9.148;2023-06-26T03:52:41;6.33;;;4.47;;
4827;SDS011;2428;48.732;9.148;2023-06-26T03:55:07;8.00;;;5.10;;
4827;SDS011;2428;48.732;9.148;2023-06-26T03:57:33;5.57;;;4.47;;
4827;SDS011;2428;48.732;9.148;2023-06-26T03:59:59;4.23;;;3.60;;
4827;SDS011;2428;48.732;9.148;2023-06-26T04:02:25;5.77;;;4.47;;
4827;SDS011;2428;48.732;9.148;2023-06-26T04:04:50;4.60;;;4.10;;
4827;SDS011;2428;48.732;9.148;2023-06-26T04:07:17;5.53;;;4.33;;
4827;SDS011;2428;48.732;9.148;2023-06-26T04:09:43;6.13;;;4.13;;
4827;SDS011;2428;48.732;9.148;2023-06-26T04:12:09;4.40;;;3.97;;
4827;SDS011;2428;48.732;9.148;2023-06-26T04:14:34;5.27;;;4.37;;
4827;SDS011;2428;48.732;9.148;2023-06-26T04:17:00;4.73;;;4.33;;
4827;SDS011;2428;48.732;9.148;2023-06-26T04:19:29;6.20;;;4.63;;
4827;SDS011;2428;48.732;9.148;2023-06-26T04:21:55;4.33;;;3.87;;
4827;SDS011;2428;48.732;9.148;2023-06-26T04:24:21;4.33;;;3.93;;
4827;SDS011;2428;48.732;9.148;2023-06-26T04:26:47;4.80;;;3.77;;
4827;SDS011;2428;48.732;9.148;2023-06-26T04:29:13;4.47;;;4.07;;
4827;SDS011;2428;48.732;9.148;2023-06-26T04:31:38;6.17;;;4.70;;
4827;SDS011;2428;48.732;9.148;2023-06-26T04:34:04;4.73;;;4.33;;
4827;SDS011;2428;48.732;9.148;2023-06-26T04:36:30;4.27;;;3.93;;
4827;SDS011;2428;48.732;9.148;2023-06-26T04:38:58;4.67;;;3.90;;
4827;SDS011;2428;48.732;9.148;2023-06-26T04:41:24;4.33;;;3.93;;
4827;SDS011;2428;48.732;9.148;2023-06-26T04:43:50;4.60;;;4.20;;
4827;SDS011;2428;48.732;9.148;2023-06-26T04:46:16;6.00;;;4.50;;
4827;SDS011;2428;48.732;9.148;2023-06-26T04:48:41;4.30;;;3.90;;
4827;SDS011;2428;48.732;9.148;2023-06-26T04:51:09;6.07;;;4.50;;
4827;SDS011;2428;48.732;9.148;2023-06-26T04:53:35;4.83;;;4.17;;
4827;SDS011;2428;48.732;9.148;2023-06-26T04:56:01;5.63;;;4.10;;
4827;SDS011;2428;48.732;9.148;2023-06-26T04:58:26;5.70;;;4.43;;
4827;SDS011;2428;48.732;9.148;2023-06-26T05:00:52;7.63;;;4.63;;
4827;SDS011;2428;48.732;9.148;2023-06-26T05:03:17;4.30;;;3.60;;
4827;SDS011;2428;48.732;9.148;2023-06-26T05:05:43;4.27;;;3.70;;
4827;SDS011;2428;48.732;9.148;2023-06-26T05:08:15;4.77;;;4.30;;
4827;SDS011;2428;48.732;9.148;2023-06-26T05:10:53;5.63;;;4.23;;
4827;SDS011;2428;48.732;9.148;2023-06-26T05:13:22;4.70;;;4.17;;
4827;SDS011;2428;48.732;9.148;2023-06-26T05:15:48;6.77;;;4.67;;
4827;SDS011;2428;48.732;9.148;2023-06-26T05:18:14;6.80;;;4.97;;
4827;SDS011;2428;48.732;9.148;2023-06-26T05:20:39;4.50;;;3.80;;
4827;SDS011;2428;48.732;9.148;2023-06-26T05:23:05;4.43;;;3.80;;
4827;SDS011;2428;48.732;9.148;2023-06-26T05:25:32;5.70;;;4.33;;
4827;SDS011;2428;48.732;9.148;2023-06-26T05:27:59;4.70;;;4.30;;
4827;SDS011;2428;48.732;9.148;2023-06-26T05:30:25;4.30;;;3.87;;
4827;SDS011;2428;48.732;9.148;2023-06-26T05:32:52;4.73;;;3.63;;
4827;SDS011;2428;48.732;9.148;2023-06-26T05:35:19;5.40;;;4.63;;
4827;SDS011;2428;48.732;9.148;2023-06-26T05:37:49;4.50;;;4.10;;
4827;SDS011;2428;48.732;9.148;2023-06-26T05:40:16;5.27;;;4.00;;
4827;SDS011;2428;48.732;9.148;2023-06-26T05:42:43;5.23;;;4.63;;
4827;SDS011;2428;48.732;9.148;2023-06-26T05:45:09;4.90;;;4.40;;
4827;SDS011;2428;48.732;9.148;2023-06-26T05:47:35;4.83;;;4.03;;
4827;SDS011;2428;48.732;9.148;2023-06-26T05:50:01;4.63;;;4.23;;
4827;SDS011;2428;48.732;9.148;2023-06-26T05:52:27;5.03;;;4.47;;
4827;SDS011;2428;48.732;9.148;2023-06-26T05:54:53;4.33;;;3.93;;
4827;SDS011;2428;48.732;9.148;2023-06-26T05:57:19;6.50;;;5.37;;
4827;SDS011;2428;48.732;9.148;2023-06-26T05:59:46;4.10;;;3.70;;
4827;SDS011;2428;48.732;9.148;2023-06-26T06:02:12;4.13;;;3.70;;
4827;SDS011;2428;48.732;9.148;2023-06-26T06:04:38;4.37;;;3.97;;
4827;SDS011;2428;48.732;9.148;2023-06-26T06:07:03;4.73;;;4.33;;
4827;SDS011;2428;48.732;9.148;2023-06-26T06:09:29;5.63;;;4.00;;
4827;SDS011;2428;48.732;9.148;2023-06-26T06:11:55;5.80;;;4.07;;
4827;SDS011;2428;48.732;9.148;2023-06-26T06:14:20;6.00;;;4.10;;
4827;SDS011;2428;48.732;9.148;2023-06-26T06:16:46;4.97;;;3.67;;
4827;SDS011;2428;48.732;9.148;2023-06-26T06:19:12;5.00;;;3.93;;
4827;SDS011;2428;48.732;9.148;2023-06-26T06:21:38;4.70;;;3.40;;
4827;SDS011;2428;48.732;9.148;2023-06-26T06:24:04;4.20;;;3.40;;
4827;SDS011;2428;48.732;9.148;2023-06-26T06:26:31;4.43;;;4.13;;
4827;SDS011;2428;48.732;9.148;2023-06-26T06:28:57;4.20;;;3.77;;
4827;SDS011;2428;48.732;9.148;2023-06-26T06:31:23;4.23;;;3.77;;
4827;SDS011;2428;48.732;9.148;2023-06-26T06:33:48;3.53;;;3.23;;
4827;SDS011;2428;48.732;9.148;2023-06-26T06:36:14;3.83;;;3.57;;
4827;SDS011;2428;48.732;9.148;2023-06-26T06:38:42;4.33;;;3.93;;
4827;SDS011;2428;48.732;9.148;2023-06-26T06:41:09;4.20;;;3.77;;
4827;SDS011;2428;48.732;9.148;2023-06-26T06:43:34;4.50;;;3.90;;
4827;SDS011;2428;48.732;9.148;2023-06-26T06:46:01;3.90;;;3.60;;
4827;SDS011;2428;48.732;9.148;2023-06-26T06:48:26;3.80;;;3.50;;
4827;SDS011;2428;48.732;9.148;2023-06-26T06:50:52;3.77;;;3.47;;
4827;SDS011;2428;48.732;9.148;2023-06-26T06:53:18;5.70;;;4.40;;
4827;SDS011;2428;48.732;9.148;2023-06-26T06:55:45;3.60;;;3.30;;
4827;SDS011;2428;48.732;9.148;2023-06-26T06:58:11;6.23;;;4.47;;
4827;SDS011;2428;48.732;9.148;2023-06-26T07:00:37;3.63;;;3.33;;
4827;SDS011;2428;48.732;9.148;2023-06-26T07:03:02;3.47;;;3.20;;
4827;SDS011;2428;48.732;9.148;2023-06-26T07:05:28;4.17;;;3.77;;
4827;SDS011;2428;48.732;9.148;2023-06-26T07:07:54;6.70;;;4.17;;
4827;SDS011;2428;48.732;9.148;2023-06-26T07:10:20;5.07;;;4.20;;
4827;SDS011;2428;48.732;9.148;2023-06-26T07:12:45;4.53;;;3.87;;
4827;SDS011;2428;48.732;9.148;2023-06-26T07:15:11;5.23;;;4.20;;
4827;SDS011;2428;48.732;9.148;2023-06-26T07:17:37;5.83;;;4.10;;
4827;SDS011;2428;48.732;9.148;2023-06-26T07:20:04;5.07;;;4.57;;
4827;SDS011;2428;48.732;9.148;2023-06-26T07:22:35;3.90;;;3.50;;
4827;SDS011;2428;48.732;9.148;2023-06-26T07:25:01;5.17;;;3.63;;
4827;SDS011;2428;48.732;9.148;2023-06-26T07:27:28;4.97;;;4.00;;
4827;SDS011;2428;48.732;9.148;2023-06-26T07:29:54;3.57;;;3.23;;
4827;SDS011;2428;48.732;9.148;2023-06-26T07:32:20;3.83;;;3.30;;
4827;SDS011;2428;48.732;9.148;2023-06-26T07:34:45;3.40;;;3.10;;
4827;SDS011;2428;48.732;9.148;2023-06-26T07:37:11;4.67;;;4.17;;
4827;SDS011;2428;48.732;9.148;2023-06-26T07:39:37;3.60;;;3.30;;
4827;SDS011;2428;48.732;9.148;2023-06-26T07:42:02;4.33;;;3.93;;
4827;SDS011;2428;48.732;9.148;2023-06-26T07:44:28;4.23;;;3.30;;
4827;SDS011;2428;48.732;9.148;2023-06-26T07:46:54;4.40;;;4.00;;
4827;SDS011;2428;48.732;9.148;2023-06-26T07:49:19;3.73;;;3.33;;
4827;SDS011;2428;48.732;9.148;2023-06-26T07:51:45;4.03;;;3.63;;
4827;SDS011;2428;48.732;9.148;2023-06-26T07:54:10;3.87;;;3.57;;
4827;SDS011;2428;48.732;9.148;2023-06-26T07:56:52;3.93;;;3.50;;
4827;SDS011;2428;48.732;9.148;2023-06-26T07:59:19;4.10;;;3.70;;
4827;SDS011;2428;48.732;9.148;2023-06-26T08:01:46;3.90;;;3.60;;
4827;SDS011;2428;48.732;9.148;2023-06-26T08:04:11;3.87;;;3.57;;
4827;SDS011;2428;48.732;9.148;2023-06-26T08:06:37;3.43;;;2.97;;
4827;SDS011;2428;48.732;9.148;2023-06-26T08:09:05;3.77;;;3.40;;
4827;SDS011;2428;48.732;9.148;2023-06-26T08:11:32;3.90;;;3.47;;
4827;SDS011;2428;48.732;9.148;2023-06-26T08:13:58;3.40;;;3.10;;
4827;SDS011;2428;48.732;9.148;2023-06-26T08:16:24;3.77;;;3.47;;
4827;SDS011;2428;48.732;9.148;2023-06-26T08:18:50;4.03;;;3.20;;
4827;SDS011;2428;48.732;9.148;2023-06-26T08:21:15;4.60;;;3.80;;
4827;SDS011;2428;48.732;9.148;2023-06-26T08:23:41;3.93;;;3.63;;
4827;SDS011;2428;48.732;9.148;2023-06-26T08:26:07;4.23;;;3.90;;
4827;SDS011;2428;48.732;9.148;2023-06-26T08:28:32;4.90;;;4.23;;
4827;SDS011;2428;48.732;9.148;2023-06-26T08:30:58;4.00;;;3.60;;
4827;SDS011;2428;48.732;9.148;2023-06-26T08:33:24;4.10;;;3.50;;
4827;SDS011;2428;48.732;9.148;2023-06-26T08:35:50;5.00;;;3.70;;
4827;SDS011;2428;48.732;9.148;2023-06-26T08:38:16;4.30;;;3.90;;
4827;SDS011;2428;48.732;9.148;2023-06-26T08:40:41;4.10;;;3.70;;
4827;SDS011;2428;48.732;9.148;2023-06-26T08:43:07;3.57;;;3.27;;
4827;SDS011;2428;48.732;9.148;2023-06-26T08:45:33;4.60;;;4.20;;
4827;SDS011;2428;48.732;9.148;2023-06-26T08:47:59;14.43;;;6.60;;
4827;SDS011;2428;48.732;9.148;2023-06-26T08:50:27;5.43;;;4.50;;
4827;SDS011;2428;48.732;9.148;2023-06-26T08:55:43;3.93;;;3.63;;
4827;SDS011;2428;48.732;9.148;2023-06-26T08:58:10;4.07;;;3.67;;
4827;SDS011;2428;48.732;9.148;2023-06-26T09:00:37;4.20;;;3.80;;
4827;SDS011;2428;48.732;9.148;2023-06-26T09:03:03;4.57;;;4.17;;
4827;SDS011;2428;48.732;9.148;2023-06-26T09:05:30;4.70;;;3.90;;
4827;SDS011;2428;48.732;9.148;2023-06-26T09:07:58;4.57;;;3.60;;
4827;SDS011;2428;48.732;9.148;2023-06-26T09:10:24;3.97;;;3.57;;
4827;SDS011;2428;48.732;9.148;2023-06-26T09:12:50;4.40;;;3.97;;
4827;SDS011;2428;48.732;9.148;2023-06-26T09:15:16;4.00;;;3.60;;
4827;SDS011;2428;48.732;9.148;2023-06-26T09:17:44;4.40;;;4.00;;
4827;SDS011;2428;48.732;9.148;2023-06-26T09:20:10;4.03;;;3.73;;
4827;SDS011;2428;48.732;9.148;2023-06-26T09:22:37;3.60;;;3.30;;
4827;SDS011;2428;48.732;9.148;2023-06-26T09:25:04;4.37;;;3.70;;
4827;SDS011;2428;48.732;9.148;2023-06-26T09:27:30;3.33;;;3.13;;
4827;SDS011;2428;48.732;9.148;2023-06-26T09:29:56;3.83;;;3.43;;
4827;SDS011;2428;48.732;9.148;2023-06-26T09:32:26;4.33;;;4.03;;
4827;SDS011;2428;48.732;9.148;2023-06-26T09:34:53;4.60;;;4.20;;
4827;SDS011;2428;48.732;9.148;2023-06-26T09:37:20;3.63;;;3.33;;
4827;SDS011;2428;48.732;9.148;2023-06-26T09:39:47;3.90;;;3.50;;
4827;SDS011;2428;48.732;9.148;2023-06-26T09:42:13;3.20;;;2.90;;
4827;SDS011;2428;48.732;9.148;2023-06-26T09:44:47;4.20;;;3.90;;
4827;SDS011;2428;48.732;9.148;2023-06-26T09:47:16;3.80;;;3.40;;
4827;SDS011;2428;48.732;9.148;2023-06-26T09:49:44;4.47;;;4.00;;
4827;SDS011;2428;48.732;9.148;2023-06-26T09:52:10;3.70;;;3.33;;
4827;SDS011;2428;48.732;9.148;2023-06-26T09:54:40;4.30;;;3.90;;
4827;SDS011;2428;48.732;9.148;2023-06-26T09:57:09;4.13;;;3.73;;
4827;SDS011;2428;48.732;9.148;2023-06-26T09:59:35;4.13;;;3.77;;
4827;SDS011;2428;48.732;9.148;2023-06-26T10:02:01;4.13;;;3.83;;
4827;SDS011;2428;48.732;9.148;2023-06-26T10:04:27;5.50;;;3.90;;
4827;SDS011;2428;48.732;9.148;2023-06-26T10:06:54;4.80;;;4.40;;
4827;SDS011;2428;48.732;9.148;2023-06-26T10:09:22;4.63;;;4.13;;
4827;SDS011;2428;48.732;9.148;2023-06-26T10:14:35;4.10;;;3.20;;
4827;SDS011;2428;48.732;9.148;2023-06-26T10:17:09;5.00;;;3.57;;
4827;SDS011;2428;48.732;9.148;2023-06-26T10:19:37;4.50;;;4.10;;
4827;SDS011;2428;48.732;9.148;2023-06-26T10:22:04;5.17;;;4.60;;
4827;SDS011;2428;48.732;9.148;2023-06-26T10:24:31;3.67;;;3.37;;
4827;SDS011;2428;48.732;9.148;2023-06-26T10:26:59;5.23;;;4.73;;
4827;SDS011;2428;48.732;9.148;2023-06-26T10:29:46;4.80;;;4.40;;
4827;SDS011;2428;48.732;9.148;2023-06-26T10:32:22;3.77;;;3.47;;
4827;SDS011;2428;48.732;9.148;2023-06-26T10:34:50;4.10;;;3.53;;
4827;SDS011;2428;48.732;9.148;2023-06-26T10:37:16;4.70;;;4.30;;
4827;SDS011;2428;48.732;9.148;2023-06-26T10:42:15;4.60;;;4.20;;
4827;SDS011;2428;48.732;9.148;2023-06-26T10:44:45;4.50;;;4.17;;
4827;SDS011;2428;48.732;9.148;2023-06-26T10:47:12;4.80;;;4.30;;
4827;SDS011;2428;48.732;9.148;2023-06-26T11:01:14;5.13;;;4.60;;
4827;SDS011;2428;48.732;9.148;2023-06-26T11:03:44;5.07;;;4.67;;
4827;SDS011;2428;48.732;9.148;2023-06-26T11:11:16;4.30;;;3.90;;
4827;SDS011;2428;48.732;9.148;2023-06-26T11:13:42;4.37;;;3.97;;
4827;SDS011;2428;48.732;9.148;2023-06-26T11:16:11;4.90;;;4.50;;
4827;SDS011;2428;48.732;9.148;2023-06-26T11:18:38;4.40;;;4.00;;
4827;SDS011;2428;48.732;9.148;2023-06-26T11:23:33;5.17;;;4.20;;
4827;SDS011;2428;48.732;9.148;2023-06-26T11:26:16;4.77;;;4.30;;
4827;SDS011;2428;48.732;9.148;2023-06-26T11:29:01;4.40;;;4.00;;
4827;SDS011;2428;48.732;9.148;2023-06-26T11:31:28;4.77;;;4.37;;
4827;SDS011;2428;48.732;9.148;2023-06-26T11:34:01;4.73;;;4.33;;
4827;SDS011;2428;48.732;9.148;2023-06-26T11:36:29;5.17;;;4.70;;
4827;SDS011;2428;48.732;9.148;2023-06-26T11:38:55;5.30;;;4.90;;
4827;SDS011;2428;48.732;9.148;2023-06-26T11:41:22;4.37;;;4.07;;
4827;SDS011;2428;48.732;9.148;2023-06-26T11:43:55;4.80;;;4.40;;
4827;SDS011;2428;48.732;9.148;2023-06-26T11:46:22;5.27;;;4.83;;
4827;SDS011;2428;48.732;9.148;2023-06-26T11:48:48;4.80;;;4.40;;
4827;SDS011;2428;48.732;9.148;2023-06-26T11:51:15;4.77;;;4.03;;
4827;SDS011;2428;48.732;9.148;2023-06-26T11:53:41;4.60;;;4.20;;
4827;SDS011;2428;48.732;9.148;2023-06-26T11:56:10;4.60;;;4.20;;
4827;SDS011;2428;48.732;9.148;2023-06-26T12:01:43;6.87;;;5.20;;
4827;SDS011;2428;48.732;9.148;2023-06-26T12:04:13;5.13;;;4.73;;
4827;SDS011;2428;48.732;9.148;2023-06-26T12:06:42;5.10;;;4.60;;
4827;SDS011;2428;48.732;9.148;2023-06-26T12:09:13;4.60;;;4.23;;
4827;SDS011;2428;48.732;9.148;2023-06-26T12:11:40;4.83;;;4.10;;
4827;SDS011;2428;48.732;9.148;2023-06-26T12:14:07;4.93;;;4.53;;
4827;SDS011;2428;48.732;9.148;2023-06-26T12:16:33;4.90;;;4.50;;
4827;SDS011;2428;48.732;9.148;2023-06-26T12:19:03;4.23;;;3.87;;
4827;SDS011;2428;48.732;9.148;2023-06-26T12:23:59;5.00;;;4.50;;
4827;SDS011;2428;48.732;9.148;2023-06-26T12:26:26;4.37;;;3.97;;
4827;SDS011;2428;48.732;9.148;2023-06-26T12:28:54;4.47;;;4.07;;
4827;SDS011;2428;48.732;9.148;2023-06-26T12:31:31;4.60;;;4.20;;
4827;SDS011;2428;48.732;9.148;2023-06-26T12:33:58;3.97;;;3.67;;
4827;SDS011;2428;48.732;9.148;2023-06-26T12:36:25;5.80;;;5.30;;
4827;SDS011;2428;48.732;9.148;2023-06-26T12:38:52;4.33;;;3.90;;
4827;SDS011;2428;48.732;9.148;2023-06-26T12:41:18;5.70;;;4.80;;
4827;SDS011;2428;48.732;9.148;2023-06-26T12:43:45;4.47;;;4.07;;
4827;SDS011;2428;48.732;9.148;2023-06-26T12:46:11;5.47;;;4.97;;
4827;SDS011;2428;48.732;9.148;2023-06-26T12:48:37;4.53;;;4.13;;
4827;SDS011;2428;48.732;9.148;2023-06-26T12:51:14;5.33;;;4.30;;
4827;SDS011;2428;48.732;9.148;2023-06-26T12:53:41;5.73;;;4.80;;
4827;SDS011;2428;48.732;9.148;2023-06-26T12:56:07;4.13;;;3.47;;
4827;SDS011;2428;48.732;9.148;2023-06-26T12:58:34;5.37;;;4.87;;
4827;SDS011;2428;48.732;9.148;2023-06-26T13:01:04;4.60;;;4.17;;
4827;SDS011;2428;48.732;9.148;2023-06-26T13:03:40;5.50;;;4.43;;
4827;SDS011;2428;48.732;9.148;2023-06-26T13:06:08;4.60;;;4.20;;
4827;SDS011;2428;48.732;9.148;2023-06-26T13:08:34;4.93;;;4.43;;
4827;SDS011;2428;48.732;9.148;2023-06-26T13:11:00;5.23;;;4.60;;
4827;SDS011;2428;48.732;9.148;2023-06-26T13:13:25;5.20;;;4.80;;
4827;SDS011;2428;48.732;9.148;2023-06-26T13:15:51;5.20;;;4.70;;
4827;SDS011;2428;48.732;9.148;2023-06-26T13:18:17;7.43;;;4.20;;
4827;SDS011;2428;48.732;9.148;2023-06-26T13:20:42;5.23;;;4.53;;
4827;SDS011;2428;48.732;9.148;2023-06-26T13:23:08;4.80;;;4.20;;
4827;SDS011;2428;48.732;9.148;2023-06-26T13:25:33;4.43;;;4.03;;
4827;SDS011;2428;48.732;9.148;2023-06-26T13:27:59;3.50;;;3.23;;
4827;SDS011;2428;48.732;9.148;2023-06-26T13:30:25;4.27;;;3.77;;
4827;SDS011;2428;48.732;9.148;2023-06-26T13:32:50;4.20;;;3.80;;
4827;SDS011;2428;48.732;9.148;2023-06-26T13:35:16;4.17;;;3.77;;
4827;SDS011;2428;48.732;9.148;2023-06-26T13:37:41;4.37;;;3.97;;
4827;SDS011;2428;48.732;9.148;2023-06-26T13:40:07;3.50;;;3.20;;
4827;SDS011;2428;48.732;9.148;2023-06-26T13:42:34;6.20;;;3.77;;
4827;SDS011;2428;48.732;9.148;2023-06-26T13:45:01;5.17;;;3.70;;
4827;SDS011;2428;48.732;9.148;2023-06-26T13:47:27;3.60;;;3.30;;
4827;SDS011;2428;48.732;9.148;2023-06-26T13:49:53;4.90;;;3.57;;
4827;SDS011;2428;48.732;9.148;2023-06-26T13:52:19;4.03;;;3.63;;
4827;SDS011;2428;48.732;9.148;2023-06-26T13:54:44;4.47;;;3.90;;
4827;SDS011;2428;48.732;9.148;2023-06-26T13:57:10;5.47;;;3.40;;
4827;SDS011;2428;48.732;9.148;2023-06-26T13:59:36;4.00;;;3.67;;
4827;SDS011;2428;48.732;9.148;2023-06-26T14:02:04;4.23;;;3.70;;
4827;SDS011;2428;48.732;9.148;2023-06-26T14:04:31;3.43;;;3.13;;
4827;SDS011;2428;48.732;9.148;2023-06-26T14:06:57;4.00;;;3.60;;
4827;SDS011;2428;48.732;9.148;2023-06-26T14:09:22;4.27;;;3.40;;
4827;SDS011;2428;48.732;9.148;2023-06-26T14:11:48;4.47;;;3.07;;
4827;SDS011;2428;48.732;9.148;2023-06-26T14:14:13;5.03;;;3.13;;
4827;SDS011;2428;48.732;9.148;2023-06-26T14:16:39;2.80;;;2.60;;
4827;SDS011;2428;48.732;9.148;2023-06-26T14:19:05;3.77;;;2.80;;
4827;SDS011;2428;48.732;9.148;2023-06-26T14:21:31;3.33;;;2.80;;
4827;SDS011;2428;48.732;9.148;2023-06-26T14:23:58;2.50;;;2.40;;
4827;SDS011;2428;48.732;9.148;2023-06-26T14:26:24;4.03;;;3.13;;
4827;SDS011;2428;48.732;9.148;2023-06-26T14:28:49;2.63;;;2.43;;
4827;SDS011;2428;48.732;9.148;2023-06-26T14:31:15;3.90;;;2.90;;
4827;SDS011;2428;48.732;9.148;2023-06-26T14:33:41;2.83;;;2.53;;
4827;SDS011;2428;48.732;9.148;2023-06-26T14:36:06;3.10;;;2.83;;
4827;SDS011;2428;48.732;9.148;2023-06-26T14:38:32;3.17;;;2.87;;
4827;SDS011;2428;48.732;9.148;2023-06-26T14:40:57;3.30;;;2.33;;
4827;SDS011;2428;48.732;9.148;2023-06-26T14:43:23;2.80;;;2.60;;
4827;SDS011;2428;48.732;9.148;2023-06-26T14:45:49;2.90;;;2.50;;
4827;SDS011;2428;48.732;9.148;2023-06-26T14:48:15;2.43;;;2.27;;
4827;SDS011;2428;48.732;9.148;2023-06-26T14:50:40;3.30;;;2.07;;
4827;SDS011;2428;48.732;9.148;2023-06-26T14:53:06;2.90;;;2.70;;
4827;SDS011;2428;48.732;9.148;2023-06-26T14:55:32;2.17;;;2.00;;
4827;SDS011;2428;48.732;9.148;2023-06-26T14:57:57;2.77;;;2.50;;
4827;SDS011;2428;48.732;9.148;2023-06-26T15:00:23;2.73;;;2.53;;
4827;SDS011;2428;48.732;9.148;2023-06-26T15:02:49;5.13;;;2.57;;
4827;SDS011;2428;48.732;9.148;2023-06-26T15:05:18;2.33;;;2.13;;
4827;SDS011;2428;48.732;9.148;2023-06-26T15:07:44;2.50;;;2.30;;
4827;SDS011;2428;48.732;9.148;2023-06-26T15:10:09;2.93;;;2.50;;
4827;SDS011;2428;48.732;9.148;2023-06-26T15:12:35;3.40;;;2.43;;
4827;SDS011;2428;48.732;9.148;2023-06-26T15:15:01;3.67;;;2.87;;
4827;SDS011;2428;48.732;9.148;2023-06-26T15:17:26;2.83;;;2.33;;
4827;SDS011;2428;48.732;9.148;2023-06-26T15:19:52;2.70;;;2.30;;
4827;SDS011;2428;48.732;9.148;2023-06-26T15:22:18;2.60;;;2.40;;
4827;SDS011;2428;48.732;9.148;2023-06-26T15:24:43;3.53;;;2.90;;
4827;SDS011;2428;48.732;9.148;2023-06-26T15:27:09;2.43;;;2.13;;
4827;SDS011;2428;48.732;9.148;2023-06-26T15:29:34;2.20;;;1.97;;
4827;SDS011;2428;48.732;9.148;2023-06-26T15:32:00;3.20;;;2.73;;
4827;SDS011;2428;48.732;9.148;2023-06-26T15:34:26;3.57;;;2.70;;
4827;SDS011;2428;48.732;9.148;2023-06-26T15:36:51;2.60;;;2.40;;
4827;SDS011;2428;48.732;9.148;2023-06-26T15:39:17;3.40;;;2.80;;
4827;SDS011;2428;48.732;9.148;2023-06-26T15:41:43;3.37;;;2.63;;
4827;SDS011;2428;48.732;9.148;2023-06-26T15:44:09;3.33;;;2.67;;
4827;SDS011;2428;48.732;9.148;2023-06-26T15:46:34;5.80;;;2.83;;
4827;SDS011;2428;48.732;9.148;2023-06-26T15:49:00;2.60;;;2.40;;
4827;SDS011;2428;48.732;9.148;2023-06-26T15:51:26;7.37;;;4.80;;